Monte Real Airport Monte Real, Leiria PT
ICAO: LPMR
IATA:
Category: Medium
Scheduled Services: No

Elevation: 187 ft
TransAlt. 4000 ft.

Airport Communications:
APP:121.7
GND:119.725
TWR:122.1

LPMR Zoom In..

Runways:

(A) RW 01 length 8068 ft width 148 ft
ILS 109.15 / hdg 6

(B) RW 19 length 8068 ft width 148 ft
ILS 110.30 / hdg 186

Location; LPMR
Day. 20 / Time. 11.00 Zulu
* QNH: 1015
* Temperature: 19° c. 66.2°f.
* Wind from: VRB° Speed 05 kn.
Dewpoint: 14° c.
Visibility: 10 km or more.
Clouds: Few 1300 ft.

LPMR 201100Z VRB05KT 9999 FEW013 19/14 Q1015


Wind From VRB°
Speed 05 kn.

 
 
jpsmedia.com for Web Design SOUNDCLOUD worldairports.se 2018   terms of use